sensor_id;sensor_type;location;lat;lon;timestamp;temperature;humidity
26589;DHT22;14235;48.532;8.722;2023-12-28T00:01:26;3.20;99.90
26589;DHT22;14235;48.532;8.722;2023-12-28T00:03:51;3.20;99.90
26589;DHT22;14235;48.532;8.722;2023-12-28T00:06:17;3.10;99.90
26589;DHT22;14235;48.532;8.722;2023-12-28T00:08:43;3.10;99.90
26589;DHT22;14235;48.532;8.722;2023-12-28T00:11:08;3.00;99.90
26589;DHT22;14235;48.532;8.722;2023-12-28T00:13:34;3.00;99.90
26589;DHT22;14235;48.532;8.722;2023-12-28T00:16:00;2.90;99.90
26589;DHT22;14235;48.532;8.722;2023-12-28T00:18:25;2.90;99.90
26589;DHT22;14235;48.532;8.722;2023-12-28T00:20:51;2.90;99.90
26589;DHT22;14235;48.532;8.722;2023-12-28T00:37:54;2.90;99.90
26589;DHT22;14235;48.532;8.722;2023-12-28T00:40:19;3.00;99.90
26589;DHT22;14235;48.532;8.722;2023-12-28T00:42:45;3.00;99.90
26589;DHT22;14235;48.532;8.722;2023-12-28T00:45:11;3.10;99.90
26589;DHT22;14235;48.532;8.722;2023-12-28T00:47:37;3.10;99.90
26589;DHT22;14235;48.532;8.722;2023-12-28T00:50:02;3.10;99.90
26589;DHT22;14235;48.532;8.722;2023-12-28T00:52:28;3.10;99.90
26589;DHT22;14235;48.532;8.722;2023-12-28T00:54:54;3.10;99.90
26589;DHT22;14235;48.532;8.722;2023-12-28T02:13:12;2.60;99.90
26589;DHT22;14235;48.532;8.722;2023-12-28T02:15:37;2.70;99.90
26589;DHT22;14235;48.532;8.722;2023-12-28T02:18:15;2.70;99.90
26589;DHT22;14235;48.532;8.722;2023-12-28T02:20:43;2.80;99.90
26589;DHT22;14235;48.532;8.722;2023-12-28T02:23:10;2.80;99.90
26589;DHT22;14235;48.532;8.722;2023-12-28T02:25:35;2.80;99.90
26589;DHT22;14235;48.532;8.722;2023-12-28T02:28:01;2.80;99.90
26589;DHT22;14235;48.532;8.722;2023-12-28T02:30:27;2.90;99.90
26589;DHT22;14235;48.532;8.722;2023-12-28T02:33:15;2.90;99.90
26589;DHT22;14235;48.532;8.722;2023-12-28T02:36:06;2.90;99.90
26589;DHT22;14235;48.532;8.722;2023-12-28T02:38:36;2.80;99.90
26589;DHT22;14235;48.532;8.722;2023-12-28T02:41:03;2.70;99.90
26589;DHT22;14235;48.532;8.722;2023-12-28T02:43:29;2.70;99.90
26589;DHT22;14235;48.532;8.722;2023-12-28T02:45:54;2.70;99.90
26589;DHT22;14235;48.532;8.722;2023-12-28T02:48:20;2.70;99.90
26589;DHT22;14235;48.532;8.722;2023-12-28T02:50:45;2.70;99.90
26589;DHT22;14235;48.532;8.722;2023-12-28T02:53:12;2.70;99.90
26589;DHT22;14235;48.532;8.722;2023-12-28T02:55:38;2.50;99.90
26589;DHT22;14235;48.532;8.722;2023-12-28T02:58:04;2.40;99.90
26589;DHT22;14235;48.532;8.722;2023-12-28T03:00:30;2.50;99.90
26589;DHT22;14235;48.532;8.722;2023-12-28T03:02:56;2.60;99.90
26589;DHT22;14235;48.532;8.722;2023-12-28T03:05:21;2.70;99.90
26589;DHT22;14235;48.532;8.722;2023-12-28T03:07:47;2.70;99.90
26589;DHT22;14235;48.532;8.722;2023-12-28T03:10:13;2.80;99.90
26589;DHT22;14235;48.532;8.722;2023-12-28T03:12:38;2.80;99.90
26589;DHT22;14235;48.532;8.722;2023-12-28T03:15:06;2.80;99.90
26589;DHT22;14235;48.532;8.722;2023-12-28T03:17:32;2.90;99.90
26589;DHT22;14235;48.532;8.722;2023-12-28T03:20:01;2.80;99.90
26589;DHT22;14235;48.532;8.722;2023-12-28T03:22:27;2.80;99.90
26589;DHT22;14235;48.532;8.722;2023-12-28T03:24:53;2.90;99.90
26589;DHT22;14235;48.532;8.722;2023-12-28T03:27:18;2.80;99.90
26589;DHT22;14235;48.532;8.722;2023-12-28T03:29:44;2.70;99.90
26589;DHT22;14235;48.532;8.722;2023-12-28T03:32:09;2.70;99.90
26589;DHT22;14235;48.532;8.722;2023-12-28T03:34:35;2.80;99.90
26589;DHT22;14235;48.532;8.722;2023-12-28T03:37:01;2.80;99.90
26589;DHT22;14235;48.532;8.722;2023-12-28T03:39:27;2.80;99.90
26589;DHT22;14235;48.532;8.722;2023-12-28T03:41:52;2.80;99.90
26589;DHT22;14235;48.532;8.722;2023-12-28T03:44:19;2.80;99.90
26589;DHT22;14235;48.532;8.722;2023-12-28T03:46:47;2.90;99.90
26589;DHT22;14235;48.532;8.722;2023-12-28T03:49:14;2.90;99.90
26589;DHT22;14235;48.532;8.722;2023-12-28T03:51:40;2.90;99.90
26589;DHT22;14235;48.532;8.722;2023-12-28T03:54:05;2.90;99.90
26589;DHT22;14235;48.532;8.722;2023-12-28T03:56:31;2.90;99.90
26589;DHT22;14235;48.532;8.722;2023-12-28T03:58:58;2.90;99.90
26589;DHT22;14235;48.532;8.722;2023-12-28T04:01:24;2.90;99.90
26589;DHT22;14235;48.532;8.722;2023-12-28T04:03:49;2.90;99.90
26589;DHT22;14235;48.532;8.722;2023-12-28T04:06:15;2.90;99.90
26589;DHT22;14235;48.532;8.722;2023-12-28T04:08:41;2.90;99.90
26589;DHT22;14235;48.532;8.722;2023-12-28T04:11:07;2.90;99.90
26589;DHT22;14235;48.532;8.722;2023-12-28T04:13:33;2.90;99.90
26589;DHT22;14235;48.532;8.722;2023-12-28T04:15:59;3.00;99.90
26589;DHT22;14235;48.532;8.722;2023-12-28T04:18:24;3.10;99.90
26589;DHT22;14235;48.532;8.722;2023-12-28T04:20:50;3.00;99.90
26589;DHT22;14235;48.532;8.722;2023-12-28T04:23:15;3.00;99.90
26589;DHT22;14235;48.532;8.722;2023-12-28T04:25:41;3.00;99.90
26589;DHT22;14235;48.532;8.722;2023-12-28T04:28:07;3.00;99.90
26589;DHT22;14235;48.532;8.722;2023-12-28T04:30:34;3.00;99.90
26589;DHT22;14235;48.532;8.722;2023-12-28T04:33:03;3.00;99.90
26589;DHT22;14235;48.532;8.722;2023-12-28T04:35:28;3.00;99.90
26589;DHT22;14235;48.532;8.722;2023-12-28T04:37:54;3.10;99.90
26589;DHT22;14235;48.532;8.722;2023-12-28T04:40:20;3.10;99.90
26589;DHT22;14235;48.532;8.722;2023-12-28T04:42:46;3.10;99.90
26589;DHT22;14235;48.532;8.722;2023-12-28T04:45:11;3.20;99.90
26589;DHT22;14235;48.532;8.722;2023-12-28T04:47:37;3.20;99.90
26589;DHT22;14235;48.532;8.722;2023-12-28T04:50:03;3.20;99.90
26589;DHT22;14235;48.532;8.722;2023-12-28T04:52:30;3.20;99.90
26589;DHT22;14235;48.532;8.722;2023-12-28T04:54:55;3.20;99.90
26589;DHT22;14235;48.532;8.722;2023-12-28T04:57:21;3.30;99.90
26589;DHT22;14235;48.532;8.722;2023-12-28T04:59:49;3.30;99.90
26589;DHT22;14235;48.532;8.722;2023-12-28T05:02:15;3.40;99.90
26589;DHT22;14235;48.532;8.722;2023-12-28T05:04:40;3.40;99.90
26589;DHT22;14235;48.532;8.722;2023-12-28T05:07:06;3.40;99.90
26589;DHT22;14235;48.532;8.722;2023-12-28T05:09:32;3.40;99.90
26589;DHT22;14235;48.532;8.722;2023-12-28T05:11:57;3.40;99.90
26589;DHT22;14235;48.532;8.722;2023-12-28T05:14:23;3.50;99.90
26589;DHT22;14235;48.532;8.722;2023-12-28T05:16:48;3.50;99.90
26589;DHT22;14235;48.532;8.722;2023-12-28T05:19:14;3.50;99.90
26589;DHT22;14235;48.532;8.722;2023-12-28T05:21:40;3.60;99.90
26589;DHT22;14235;48.532;8.722;2023-12-28T05:24:05;3.60;99.90
26589;DHT22;14235;48.532;8.722;2023-12-28T05:26:31;3.70;99.90
26589;DHT22;14235;48.532;8.722;2023-12-28T05:28:56;3.70;99.90
26589;DHT22;14235;48.532;8.722;2023-12-28T05:31:22;3.60;99.90
26589;DHT22;14235;48.532;8.722;2023-12-28T05:33:47;3.70;99.90
26589;DHT22;14235;48.532;8.722;2023-12-28T05:36:13;3.70;99.90
26589;DHT22;14235;48.532;8.722;2023-12-28T05:38:38;3.70;99.90
26589;DHT22;14235;48.532;8.722;2023-12-28T05:41:04;3.70;99.90
26589;DHT22;14235;48.532;8.722;2023-12-28T05:43:30;3.70;99.90
26589;DHT22;14235;48.532;8.722;2023-12-28T05:45:55;3.70;99.90
26589;DHT22;14235;48.532;8.722;2023-12-28T05:48:21;3.70;99.90
26589;DHT22;14235;48.532;8.722;2023-12-28T05:50:46;3.70;99.90
26589;DHT22;14235;48.532;8.722;2023-12-28T05:53:12;3.80;99.90
26589;DHT22;14235;48.532;8.722;2023-12-28T05:55:43;3.70;99.90
26589;DHT22;14235;48.532;8.722;2023-12-28T05:58:11;3.80;99.90
26589;DHT22;14235;48.532;8.722;2023-12-28T06:00:37;3.80;99.90
26589;DHT22;14235;48.532;8.722;2023-12-28T06:03:05;3.80;99.90
26589;DHT22;14235;48.532;8.722;2023-12-28T06:05:31;3.90;99.90
26589;DHT22;14235;48.532;8.722;2023-12-28T06:07:56;3.90;99.90
26589;DHT22;14235;48.532;8.722;2023-12-28T06:10:22;3.90;99.90
26589;DHT22;14235;48.532;8.722;2023-12-28T06:12:47;3.90;99.90
26589;DHT22;14235;48.532;8.722;2023-12-28T06:15:13;3.90;99.90
26589;DHT22;14235;48.532;8.722;2023-12-28T06:17:39;3.90;99.90
26589;DHT22;14235;48.532;8.722;2023-12-28T06:20:05;4.00;99.90
26589;DHT22;14235;48.532;8.722;2023-12-28T06:22:30;4.00;99.90
26589;DHT22;14235;48.532;8.722;2023-12-28T06:24:56;4.00;99.90
26589;DHT22;14235;48.532;8.722;2023-12-28T06:27:22;4.10;99.90
26589;DHT22;14235;48.532;8.722;2023-12-28T06:29:50;4.10;99.90
26589;DHT22;14235;48.532;8.722;2023-12-28T06:32:16;4.10;99.90
26589;DHT22;14235;48.532;8.722;2023-12-28T06:34:42;4.20;99.90
26589;DHT22;14235;48.532;8.722;2023-12-28T06:37:07;4.20;99.90
26589;DHT22;14235;48.532;8.722;2023-12-28T06:39:33;4.20;99.90
26589;DHT22;14235;48.532;8.722;2023-12-28T06:41:58;4.30;99.90
26589;DHT22;14235;48.532;8.722;2023-12-28T06:44:24;4.30;99.90
26589;DHT22;14235;48.532;8.722;2023-12-28T06:46:49;4.20;99.90
26589;DHT22;14235;48.532;8.722;2023-12-28T06:49:15;4.40;99.90
26589;DHT22;14235;48.532;8.722;2023-12-28T06:51:41;4.40;99.90
26589;DHT22;14235;48.532;8.722;2023-12-28T06:54:08;4.50;99.90
26589;DHT22;14235;48.532;8.722;2023-12-28T06:56:34;4.50;99.90
26589;DHT22;14235;48.532;8.722;2023-12-28T06:59:00;4.50;99.90
26589;DHT22;14235;48.532;8.722;2023-12-28T07:01:25;4.50;99.90
26589;DHT22;14235;48.532;8.722;2023-12-28T07:03:51;4.60;99.90
26589;DHT22;14235;48.532;8.722;2023-12-28T07:06:17;4.60;99.90
26589;DHT22;14235;48.532;8.722;2023-12-28T07:08:43;4.60;99.90
26589;DHT22;14235;48.532;8.722;2023-12-28T07:11:11;4.60;99.90
26589;DHT22;14235;48.532;8.722;2023-12-28T07:13:37;4.60;99.90
26589;DHT22;14235;48.532;8.722;2023-12-28T07:16:03;4.70;99.90
26589;DHT22;14235;48.532;8.722;2023-12-28T07:18:29;4.70;99.90
26589;DHT22;14235;48.532;8.722;2023-12-28T07:20:54;4.70;99.90
26589;DHT22;14235;48.532;8.722;2023-12-28T07:23:20;4.70;99.90
26589;DHT22;14235;48.532;8.722;2023-12-28T07:25:46;4.70;99.90
26589;DHT22;14235;48.532;8.722;2023-12-28T07:28:11;4.80;99.90
26589;DHT22;14235;48.532;8.722;2023-12-28T07:30:37;4.80;99.90
26589;DHT22;14235;48.532;8.722;2023-12-28T07:33:03;4.80;99.90
26589;DHT22;14235;48.532;8.722;2023-12-28T07:35:29;4.80;99.90
26589;DHT22;14235;48.532;8.722;2023-12-28T07:37:54;4.80;99.90
26589;DHT22;14235;48.532;8.722;2023-12-28T07:40:20;4.90;99.90
26589;DHT22;14235;48.532;8.722;2023-12-28T07:42:46;4.90;99.90
26589;DHT22;14235;48.532;8.722;2023-12-28T07:45:12;4.90;99.90
26589;DHT22;14235;48.532;8.722;2023-12-28T07:47:37;4.90;99.90
26589;DHT22;14235;48.532;8.722;2023-12-28T07:50:03;4.90;99.90
26589;DHT22;14235;48.532;8.722;2023-12-28T07:52:29;4.90;99.90
26589;DHT22;14235;48.532;8.722;2023-12-28T07:54:55;4.90;99.90
26589;DHT22;14235;48.532;8.722;2023-12-28T07:57:21;5.00;99.90
26589;DHT22;14235;48.532;8.722;2023-12-28T07:59:46;5.00;99.90
26589;DHT22;14235;48.532;8.722;2023-12-28T08:02:12;5.00;99.90
26589;DHT22;14235;48.532;8.722;2023-12-28T08:04:38;5.10;99.90
26589;DHT22;14235;48.532;8.722;2023-12-28T08:07:03;5.00;99.90
26589;DHT22;14235;48.532;8.722;2023-12-28T08:09:29;5.10;99.90
26589;DHT22;14235;48.532;8.722;2023-12-28T08:11:55;5.10;99.90
26589;DHT22;14235;48.532;8.722;2023-12-28T08:14:21;5.10;99.90
26589;DHT22;14235;48.532;8.722;2023-12-28T08:16:46;5.20;99.90
26589;DHT22;14235;48.532;8.722;2023-12-28T08:19:12;5.20;99.90
26589;DHT22;14235;48.532;8.722;2023-12-28T08:21:38;5.20;99.90
26589;DHT22;14235;48.532;8.722;2023-12-28T08:24:04;5.30;99.90
26589;DHT22;14235;48.532;8.722;2023-12-28T08:26:29;5.30;99.90
26589;DHT22;14235;48.532;8.722;2023-12-28T08:28:55;5.30;99.90
26589;DHT22;14235;48.532;8.722;2023-12-28T08:31:21;5.30;99.90
26589;DHT22;14235;48.532;8.722;2023-12-28T08:33:46;5.40;99.90
26589;DHT22;14235;48.532;8.722;2023-12-28T08:36:12;5.40;99.90
26589;DHT22;14235;48.532;8.722;2023-12-28T08:38:38;5.40;99.90
26589;DHT22;14235;48.532;8.722;2023-12-28T08:41:03;5.50;99.90
26589;DHT22;14235;48.532;8.722;2023-12-28T08:43:34;5.60;99.90
26589;DHT22;14235;48.532;8.722;2023-12-28T08:46:00;5.60;99.90
26589;DHT22;14235;48.532;8.722;2023-12-28T08:48:26;5.70;99.90
26589;DHT22;14235;48.532;8.722;2023-12-28T08:50:51;5.70;99.90
26589;DHT22;14235;48.532;8.722;2023-12-28T08:53:17;5.70;99.90
26589;DHT22;14235;48.532;8.722;2023-12-28T08:55:42;5.80;99.90
26589;DHT22;14235;48.532;8.722;2023-12-28T08:58:08;5.90;99.90
26589;DHT22;14235;48.532;8.722;2023-12-28T09:00:33;5.90;99.90
26589;DHT22;14235;48.532;8.722;2023-12-28T09:02:59;5.90;99.90
26589;DHT22;14235;48.532;8.722;2023-12-28T09:05:25;5.90;99.90
26589;DHT22;14235;48.532;8.722;2023-12-28T09:07:50;6.00;99.90
26589;DHT22;14235;48.532;8.722;2023-12-28T09:10:16;6.00;99.90
26589;DHT22;14235;48.532;8.722;2023-12-28T09:12:41;5.90;99.90
26589;DHT22;14235;48.532;8.722;2023-12-28T09:15:08;5.90;99.90
26589;DHT22;14235;48.532;8.722;2023-12-28T09:17:34;6.00;99.90
26589;DHT22;14235;48.532;8.722;2023-12-28T09:24:57;6.10;99.90
26589;DHT22;14235;48.532;8.722;2023-12-28T09:27:23;6.10;99.90
26589;DHT22;14235;48.532;8.722;2023-12-28T09:29:48;6.10;99.90
26589;DHT22;14235;48.532;8.722;2023-12-28T09:32:14;6.20;99.90
26589;DHT22;14235;48.532;8.722;2023-12-28T09:34:40;6.10;99.90
26589;DHT22;14235;48.532;8.722;2023-12-28T09:37:05;6.20;99.90
26589;DHT22;14235;48.532;8.722;2023-12-28T09:39:31;6.20;99.90
26589;DHT22;14235;48.532;8.722;2023-12-28T09:42:04;6.30;99.90
26589;DHT22;14235;48.532;8.722;2023-12-28T09:44:32;6.40;99.90
26589;DHT22;14235;48.532;8.722;2023-12-28T09:46:58;6.50;99.90
26589;DHT22;14235;48.532;8.722;2023-12-28T09:49:25;6.60;99.90
26589;DHT22;14235;48.532;8.722;2023-12-28T09:51:50;6.70;99.90
26589;DHT22;14235;48.532;8.722;2023-12-28T09:54:16;6.70;99.90
26589;DHT22;14235;48.532;8.722;2023-12-28T09:56:44;7.00;99.90
26589;DHT22;14235;48.532;8.722;2023-12-28T09:59:11;7.10;99.90
26589;DHT22;14235;48.532;8.722;2023-12-28T10:01:37;7.40;99.90
26589;DHT22;14235;48.532;8.722;2023-12-28T10:04:02;7.60;99.90
26589;DHT22;14235;48.532;8.722;2023-12-28T10:06:29;7.70;99.90
26589;DHT22;14235;48.532;8.722;2023-12-28T10:08:55;7.80;99.90
26589;DHT22;14235;48.532;8.722;2023-12-28T10:11:21;7.90;99.90
26589;DHT22;14235;48.532;8.722;2023-12-28T10:13:49;8.10;99.90
26589;DHT22;14235;48.532;8.722;2023-12-28T10:16:15;8.20;99.90
26589;DHT22;14235;48.532;8.722;2023-12-28T10:18:44;8.30;99.90
26589;DHT22;14235;48.532;8.722;2023-12-28T10:21:11;8.30;99.90
26589;DHT22;14235;48.532;8.722;2023-12-28T10:23:38;8.20;99.90
26589;DHT22;14235;48.532;8.722;2023-12-28T10:26:04;8.20;99.90
26589;DHT22;14235;48.532;8.722;2023-12-28T10:28:35;8.10;99.90
26589;DHT22;14235;48.532;8.722;2023-12-28T10:31:03;8.20;99.90
26589;DHT22;14235;48.532;8.722;2023-12-28T10:33:36;8.20;99.90
26589;DHT22;14235;48.532;8.722;2023-12-28T10:36:06;8.20;99.90
26589;DHT22;14235;48.532;8.722;2023-12-28T10:38:36;8.10;99.90
26589;DHT22;14235;48.532;8.722;2023-12-28T10:41:06;8.10;99.90
26589;DHT22;14235;48.532;8.722;2023-12-28T10:43:46;8.10;99.90
26589;DHT22;14235;48.532;8.722;2023-12-28T10:46:25;8.20;99.90
26589;DHT22;14235;48.532;8.722;2023-12-28T10:49:11;8.20;99.90
26589;DHT22;14235;48.532;8.722;2023-12-28T10:51:41;8.20;99.90
26589;DHT22;14235;48.532;8.722;2023-12-28T10:57:17;8.30;99.90
26589;DHT22;14235;48.532;8.722;2023-12-28T11:02:21;8.40;99.90
26589;DHT22;14235;48.532;8.722;2023-12-28T11:04:50;8.40;99.90
26589;DHT22;14235;48.532;8.722;2023-12-28T11:07:18;8.50;99.90
26589;DHT22;14235;48.532;8.722;2023-12-28T11:09:44;8.50;99.90
26589;DHT22;14235;48.532;8.722;2023-12-28T11:12:10;8.60;99.90
26589;DHT22;14235;48.532;8.722;2023-12-28T11:14:40;8.60;99.90
26589;DHT22;14235;48.532;8.722;2023-12-28T11:17:06;8.60;99.90
26589;DHT22;14235;48.532;8.722;2023-12-28T11:19:33;8.60;99.90
26589;DHT22;14235;48.532;8.722;2023-12-28T11:22:01;8.60;99.90
26589;DHT22;14235;48.532;8.722;2023-12-28T11:24:28;8.70;99.90
26589;DHT22;14235;48.532;8.722;2023-12-28T11:26:55;8.80;99.90
26589;DHT22;14235;48.532;8.722;2023-12-28T11:29:21;8.70;99.90
26589;DHT22;14235;48.532;8.722;2023-12-28T11:32:00;8.80;99.90
26589;DHT22;14235;48.532;8.722;2023-12-28T11:34:30;8.90;99.90
26589;DHT22;14235;48.532;8.722;2023-12-28T11:36:57;8.90;99.90
26589;DHT22;14235;48.532;8.722;2023-12-28T11:39:34;8.90;99.90
26589;DHT22;14235;48.532;8.722;2023-12-28T11:42:07;9.00;99.90
26589;DHT22;14235;48.532;8.722;2023-12-28T11:44:41;8.90;99.90
26589;DHT22;14235;48.532;8.722;2023-12-28T11:47:13;8.90;99.90
26589;DHT22;14235;48.532;8.722;2023-12-28T11:49:39;8.90;99.90
26589;DHT22;14235;48.532;8.722;2023-12-28T11:52:07;8.90;99.90
26589;DHT22;14235;48.532;8.722;2023-12-28T11:54:32;8.80;99.90
26589;DHT22;14235;48.532;8.722;2023-12-28T11:56:58;8.90;99.90
26589;DHT22;14235;48.532;8.722;2023-12-28T11:59:24;8.90;99.90
26589;DHT22;14235;48.532;8.722;2023-12-28T12:01:53;8.90;99.90
26589;DHT22;14235;48.532;8.722;2023-12-28T12:04:19;8.90;99.90
26589;DHT22;14235;48.532;8.722;2023-12-28T12:06:45;8.90;99.90
26589;DHT22;14235;48.532;8.722;2023-12-28T12:09:15;8.90;99.90
26589;DHT22;14235;48.532;8.722;2023-12-28T12:11:41;9.00;99.90
26589;DHT22;14235;48.532;8.722;2023-12-28T12:14:11;9.00;99.90
26589;DHT22;14235;48.532;8.722;2023-12-28T12:16:37;8.90;99.90
26589;DHT22;14235;48.532;8.722;2023-12-28T12:19:06;8.90;99.90
26589;DHT22;14235;48.532;8.722;2023-12-28T12:21:33;9.00;99.90
26589;DHT22;14235;48.532;8.722;2023-12-28T12:23:59;9.00;99.90
26589;DHT22;14235;48.532;8.722;2023-12-28T12:26:26;9.00;99.90
26589;DHT22;14235;48.532;8.722;2023-12-28T12:28:52;9.00;99.90
26589;DHT22;14235;48.532;8.722;2023-12-28T12:31:18;9.00;99.90
26589;DHT22;14235;48.532;8.722;2023-12-28T12:33:44;8.90;99.90
26589;DHT22;14235;48.532;8.722;2023-12-28T12:36:10;8.90;99.90
26589;DHT22;14235;48.532;8.722;2023-12-28T12:38:36;8.90;99.90
26589;DHT22;14235;48.532;8.722;2023-12-28T12:41:02;8.90;99.90
26589;DHT22;14235;48.532;8.722;2023-12-28T12:43:28;8.90;99.90
26589;DHT22;14235;48.532;8.722;2023-12-28T12:45:54;8.80;99.90
26589;DHT22;14235;48.532;8.722;2023-12-28T12:48:19;8.80;99.90
26589;DHT22;14235;48.532;8.722;2023-12-28T12:50:45;8.80;99.90
26589;DHT22;14235;48.532;8.722;2023-12-28T12:53:11;8.70;99.90
26589;DHT22;14235;48.532;8.722;2023-12-28T12:55:37;8.80;99.90
26589;DHT22;14235;48.532;8.722;2023-12-28T12:58:09;8.80;99.90
26589;DHT22;14235;48.532;8.722;2023-12-28T13:00:35;8.90;99.90
26589;DHT22;14235;48.532;8.722;2023-12-28T13:03:01;8.90;99.90
26589;DHT22;14235;48.532;8.722;2023-12-28T13:05:27;8.90;99.90
26589;DHT22;14235;48.532;8.722;2023-12-28T13:07:53;8.90;99.90
26589;DHT22;14235;48.532;8.722;2023-12-28T13:10:19;8.90;99.90
26589;DHT22;14235;48.532;8.722;2023-12-28T13:12:45;8.90;99.90
26589;DHT22;14235;48.532;8.722;2023-12-28T13:15:10;8.90;99.90
26589;DHT22;14235;48.532;8.722;2023-12-28T13:17:36;8.90;99.90
26589;DHT22;14235;48.532;8.722;2023-12-28T13:20:05;8.90;99.90
26589;DHT22;14235;48.532;8.722;2023-12-28T13:22:32;8.90;99.90
26589;DHT22;14235;48.532;8.722;2023-12-28T13:24:58;8.90;99.90
26589;DHT22;14235;48.532;8.722;2023-12-28T13:27:24;8.90;99.90
